sensor_id;sensor_type;location;lat;lon;timestamp;pressure;altitude;pressure_sealevel;temperature;humidity
61488;BME280;47351;53.326;-6.298;2023-04-15T00:01:42;101120.23;;;6.67;66.12
61488;BME280;47351;53.326;-6.298;2023-04-15T00:04:38;101129.31;;;6.63;66.31
61488;BME280;47351;53.326;-6.298;2023-04-15T00:07:34;101132.73;;;6.58;66.45
61488;BME280;47351;53.326;-6.298;2023-04-15T00:10:30;101135.87;;;6.54;66.65
61488;BME280;47351;53.326;-6.298;2023-04-15T00:13:32;101140.85;;;6.51;66.82
61488;BME280;47351;53.326;-6.298;2023-04-15T00:16:28;101148.26;;;6.49;66.89
61488;BME280;47351;53.326;-6.298;2023-04-15T00:19:39;101151.79;;;6.50;67.21
61488;BME280;47351;53.326;-6.298;2023-04-15T00:22:30;101158.82;;;6.53;67.36
61488;BME280;47351;53.326;-6.298;2023-04-15T00:25:35;101160.83;;;6.55;67.39
61488;BME280;47351;53.326;-6.298;2023-04-15T00:28:30;101161.46;;;6.56;67.52
61488;BME280;47351;53.326;-6.298;2023-04-15T00:31:32;101165.79;;;6.59;67.69
61488;BME280;47351;53.326;-6.298;2023-04-15T00:34:35;101172.77;;;6.60;67.51
61488;BME280;47351;53.326;-6.298;2023-04-15T00:37:46;101182.16;;;6.61;67.72
61488;BME280;47351;53.326;-6.298;2023-04-15T00:40:46;101178.10;;;6.60;67.76
61488;BME280;47351;53.326;-6.298;2023-04-15T00:43:46;101175.91;;;6.59;67.78
61488;BME280;47351;53.326;-6.298;2023-04-15T00:46:41;101180.27;;;6.58;67.88
61488;BME280;47351;53.326;-6.298;2023-04-15T00:49:38;101181.52;;;6.55;67.91
61488;BME280;47351;53.326;-6.298;2023-04-15T00:52:34;101177.76;;;6.49;67.86
61488;BME280;47351;53.326;-6.298;2023-04-15T00:55:28;101179.67;;;6.42;68.03
61488;BME280;47351;53.326;-6.298;2023-04-15T00:58:24;101173.83;;;6.38;68.36
61488;BME280;47351;53.326;-6.298;2023-04-15T01:01:25;101170.67;;;6.33;68.50
61488;BME280;47351;53.326;-6.298;2023-04-15T01:04:16;101165.89;;;6.28;68.67
61488;BME280;47351;53.326;-6.298;2023-04-15T01:07:16;101173.30;;;6.24;68.84
61488;BME280;47351;53.326;-6.298;2023-04-15T01:10:08;101177.73;;;6.20;69.12
61488;BME280;47351;53.326;-6.298;2023-04-15T01:13:08;101182.65;;;6.16;69.30
61488;BME280;47351;53.326;-6.298;2023-04-15T01:16:05;101186.64;;;6.15;69.47
61488;BME280;47351;53.326;-6.298;2023-04-15T01:19:17;101194.66;;;6.14;69.67
61488;BME280;47351;53.326;-6.298;2023-04-15T01:22:10;101194.79;;;6.14;69.79
61488;BME280;47351;53.326;-6.298;2023-04-15T01:25:05;101201.91;;;6.16;70.01
61488;BME280;47351;53.326;-6.298;2023-04-15T01:28:18;101206.37;;;6.18;70.17
61488;BME280;47351;53.326;-6.298;2023-04-15T01:31:28;101206.51;;;6.21;70.27
61488;BME280;47351;53.326;-6.298;2023-04-15T01:34:20;101208.83;;;6.23;70.32
61488;BME280;47351;53.326;-6.298;2023-04-15T01:37:15;101213.90;;;6.24;70.31
61488;BME280;47351;53.326;-6.298;2023-04-15T01:40:14;101217.41;;;6.22;70.24
61488;BME280;47351;53.326;-6.298;2023-04-15T01:43:10;101221.31;;;6.20;70.20
61488;BME280;47351;53.326;-6.298;2023-04-15T01:46:07;101218.78;;;6.16;70.18
61488;BME280;47351;53.326;-6.298;2023-04-15T01:48:58;101226.76;;;6.11;70.15
61488;BME280;47351;53.326;-6.298;2023-04-15T01:52:09;101239.65;;;6.07;70.39
61488;BME280;47351;53.326;-6.298;2023-04-15T01:55:06;101240.39;;;6.02;70.51
61488;BME280;47351;53.326;-6.298;2023-04-15T01:58:18;101244.63;;;5.97;70.63
61488;BME280;47351;53.326;-6.298;2023-04-15T02:01:14;101248.48;;;5.94;70.76
61488;BME280;47351;53.326;-6.298;2023-04-15T02:04:05;101254.71;;;5.90;70.92
61488;BME280;47351;53.326;-6.298;2023-04-15T02:07:03;101266.07;;;5.85;70.97
61488;BME280;47351;53.326;-6.298;2023-04-15T02:09:54;101268.15;;;5.81;71.04
61488;BME280;47351;53.326;-6.298;2023-04-15T02:12:47;101267.91;;;5.77;71.20
61488;BME280;47351;53.326;-6.298;2023-04-15T02:15:38;101268.59;;;5.73;71.26
61488;BME280;47351;53.326;-6.298;2023-04-15T02:18:50;101267.40;;;5.67;71.43
61488;BME280;47351;53.326;-6.298;2023-04-15T02:21:52;101265.54;;;5.64;71.61
61488;BME280;47351;53.326;-6.298;2023-04-15T02:24:43;101268.09;;;5.60;71.73
61488;BME280;47351;53.326;-6.298;2023-04-15T02:27:40;101269.55;;;5.57;71.91
61488;BME280;47351;53.326;-6.298;2023-04-15T02:30:33;101267.27;;;5.54;72.07
61488;BME280;47351;53.326;-6.298;2023-04-15T02:33:29;101269.55;;;5.52;72.20
61488;BME280;47351;53.326;-6.298;2023-04-15T02:36:29;101269.82;;;5.51;72.37
61488;BME280;47351;53.326;-6.298;2023-04-15T02:39:26;101271.16;;;5.49;72.45
61488;BME280;47351;53.326;-6.298;2023-04-15T02:42:20;101272.04;;;5.49;72.52
61488;BME280;47351;53.326;-6.298;2023-04-15T02:45:15;101278.09;;;5.49;72.60
61488;BME280;47351;53.326;-6.298;2023-04-15T02:48:14;101284.04;;;5.50;72.79
61488;BME280;47351;53.326;-6.298;2023-04-15T02:51:15;101283.72;;;5.52;73.08
61488;BME280;47351;53.326;-6.298;2023-04-15T02:54:23;101284.78;;;5.55;73.11
61488;BME280;47351;53.326;-6.298;2023-04-15T02:57:14;101288.52;;;5.56;73.14
61488;BME280;47351;53.326;-6.298;2023-04-15T03:00:15;101292.38;;;5.60;73.26
61488;BME280;47351;53.326;-6.298;2023-04-15T03:03:08;101293.48;;;5.62;73.26
61488;BME280;47351;53.326;-6.298;2023-04-15T03:06:04;101299.85;;;5.62;73.24
61488;BME280;47351;53.326;-6.298;2023-04-15T03:08:55;101307.64;;;5.62;73.38
61488;BME280;47351;53.326;-6.298;2023-04-15T03:11:54;101308.17;;;5.59;73.30
61488;BME280;47351;53.326;-6.298;2023-04-15T03:14:45;101312.94;;;5.57;73.25
61488;BME280;47351;53.326;-6.298;2023-04-15T03:17:46;101315.62;;;5.54;73.31
61488;BME280;47351;53.326;-6.298;2023-04-15T03:20:38;101313.49;;;5.49;73.26
61488;BME280;47351;53.326;-6.298;2023-04-15T03:23:39;101321.93;;;5.45;73.36
61488;BME280;47351;53.326;-6.298;2023-04-15T03:26:37;101328.64;;;5.41;73.43
61488;BME280;47351;53.326;-6.298;2023-04-15T03:29:48;101338.64;;;5.37;73.57
61488;BME280;47351;53.326;-6.298;2023-04-15T03:32:51;101345.88;;;5.32;73.65
61488;BME280;47351;53.326;-6.298;2023-04-15T03:35:45;101354.34;;;5.28;73.72
61488;BME280;47351;53.326;-6.298;2023-04-15T03:38:38;101355.07;;;5.22;73.81
61488;BME280;47351;53.326;-6.298;2023-04-15T03:41:35;101357.61;;;5.19;74.15
61488;BME280;47351;53.326;-6.298;2023-04-15T03:44:37;101362.38;;;5.17;74.53
61488;BME280;47351;53.326;-6.298;2023-04-15T03:47:48;101362.77;;;5.13;74.73
61488;BME280;47351;53.326;-6.298;2023-04-15T03:50:44;101365.71;;;5.12;75.00
61488;BME280;47351;53.326;-6.298;2023-04-15T03:53:40;101367.58;;;5.10;75.05
61488;BME280;47351;53.326;-6.298;2023-04-15T03:56:39;101373.75;;;5.10;75.27
61488;BME280;47351;53.326;-6.298;2023-04-15T03:59:29;101377.05;;;5.11;75.55
61488;BME280;47351;53.326;-6.298;2023-04-15T04:02:40;101378.80;;;5.15;75.81
61488;BME280;47351;53.326;-6.298;2023-04-15T04:05:43;101378.23;;;5.18;75.83
61488;BME280;47351;53.326;-6.298;2023-04-15T04:08:44;101377.00;;;5.20;75.88
61488;BME280;47351;53.326;-6.298;2023-04-15T04:11:54;101377.23;;;5.22;75.92
61488;BME280;47351;53.326;-6.298;2023-04-15T04:15:06;101387.16;;;5.24;76.00
61488;BME280;47351;53.326;-6.298;2023-04-15T04:18:06;101387.48;;;5.24;75.95
61488;BME280;47351;53.326;-6.298;2023-04-15T04:21:02;101386.67;;;5.23;75.89
61488;BME280;47351;53.326;-6.298;2023-04-15T04:24:02;101391.93;;;5.22;75.98
61488;BME280;47351;53.326;-6.298;2023-04-15T04:27:13;101395.80;;;5.19;76.09
61488;BME280;47351;53.326;-6.298;2023-04-15T04:30:07;101404.10;;;5.17;76.15
61488;BME280;47351;53.326;-6.298;2023-04-15T04:33:09;101406.82;;;5.14;76.14
61488;BME280;47351;53.326;-6.298;2023-04-15T04:36:06;101403.46;;;5.08;76.10
61488;BME280;47351;53.326;-6.298;2023-04-15T04:39:02;101410.15;;;5.03;76.20
61488;BME280;47351;53.326;-6.298;2023-04-15T04:42:01;101414.90;;;4.99;76.33
61488;BME280;47351;53.326;-6.298;2023-04-15T04:44:57;101418.69;;;4.93;76.37
61488;BME280;47351;53.326;-6.298;2023-04-15T04:47:53;101420.49;;;4.87;76.40
61488;BME280;47351;53.326;-6.298;2023-04-15T04:50:54;101417.98;;;4.82;76.71
61488;BME280;47351;53.326;-6.298;2023-04-15T04:53:55;101422.35;;;4.78;76.93
61488;BME280;47351;53.326;-6.298;2023-04-15T04:56:51;101428.13;;;4.73;76.98
61488;BME280;47351;53.326;-6.298;2023-04-15T04:59:47;101433.49;;;4.70;77.10
61488;BME280;47351;53.326;-6.298;2023-04-15T05:02:40;101432.50;;;4.66;77.31
61488;BME280;47351;53.326;-6.298;2023-04-15T05:05:44;101430.07;;;4.62;77.46
61488;BME280;47351;53.326;-6.298;2023-04-15T05:08:44;101434.02;;;4.59;77.52
61488;BME280;47351;53.326;-6.298;2023-04-15T05:11:40;101442.21;;;4.55;77.67
61488;BME280;47351;53.326;-6.298;2023-04-15T05:14:42;101447.23;;;4.52;77.70
61488;BME280;47351;53.326;-6.298;2023-04-15T05:17:42;101448.61;;;4.50;77.95
61488;BME280;47351;53.326;-6.298;2023-04-15T05:20:38;101454.95;;;4.47;77.94
61488;BME280;47351;53.326;-6.298;2023-04-15T05:23:32;101456.70;;;4.45;78.03
61488;BME280;47351;53.326;-6.298;2023-04-15T05:26:28;101467.86;;;4.44;78.26
61488;BME280;47351;53.326;-6.298;2023-04-15T05:29:30;101475.97;;;4.45;78.25
61488;BME280;47351;53.326;-6.298;2023-04-15T05:32:26;101480.38;;;4.45;78.36
61488;BME280;47351;53.326;-6.298;2023-04-15T05:35:22;101482.75;;;4.47;78.48
61488;BME280;47351;53.326;-6.298;2023-04-15T05:38:18;101482.78;;;4.49;78.55
61488;BME280;47351;53.326;-6.298;2023-04-15T05:41:19;101488.08;;;4.52;78.68
61488;BME280;47351;53.326;-6.298;2023-04-15T05:44:17;101495.19;;;4.56;78.73
61488;BME280;47351;53.326;-6.298;2023-04-15T05:47:19;101501.44;;;4.61;78.95
61488;BME280;47351;53.326;-6.298;2023-04-15T05:50:22;101503.56;;;4.66;79.06
61488;BME280;47351;53.326;-6.298;2023-04-15T05:53:19;101509.11;;;4.71;78.91
61488;BME280;47351;53.326;-6.298;2023-04-15T05:56:15;101506.79;;;4.74;78.82
61488;BME280;47351;53.326;-6.298;2023-04-15T05:59:10;101514.04;;;4.77;78.74
61488;BME280;47351;53.326;-6.298;2023-04-15T06:02:12;101518.56;;;4.78;78.61
61488;BME280;47351;53.326;-6.298;2023-04-15T06:05:16;101525.98;;;4.78;78.51
61488;BME280;47351;53.326;-6.298;2023-04-15T06:08:27;101531.84;;;4.77;78.52
61488;BME280;47351;53.326;-6.298;2023-04-15T06:11:21;101536.30;;;4.77;78.53
61488;BME280;47351;53.326;-6.298;2023-04-15T06:14:14;101543.38;;;4.77;78.55
61488;BME280;47351;53.326;-6.298;2023-04-15T06:17:06;101550.73;;;4.78;78.70
61488;BME280;47351;53.326;-6.298;2023-04-15T06:20:00;101552.41;;;4.80;78.86
61488;BME280;47351;53.326;-6.298;2023-04-15T06:23:07;101552.80;;;4.81;78.94
61488;BME280;47351;53.326;-6.298;2023-04-15T06:26:04;101554.40;;;4.84;78.94
61488;BME280;47351;53.326;-6.298;2023-04-15T06:29:15;101559.68;;;4.87;79.05
61488;BME280;47351;53.326;-6.298;2023-04-15T06:32:26;101564.79;;;4.90;79.15
61488;BME280;47351;53.326;-6.298;2023-04-15T06:35:37;101570.32;;;4.95;79.16
61488;BME280;47351;53.326;-6.298;2023-04-15T06:38:48;101569.81;;;5.00;79.27
61488;BME280;47351;53.326;-6.298;2023-04-15T06:42:02;101576.45;;;5.06;79.35
61488;BME280;47351;53.326;-6.298;2023-04-15T06:44:54;101583.86;;;5.12;79.38
61488;BME280;47351;53.326;-6.298;2023-04-15T06:47:50;101588.73;;;5.19;79.41
61488;BME280;47351;53.326;-6.298;2023-04-15T06:50:41;101595.42;;;5.27;79.45
61488;BME280;47351;53.326;-6.298;2023-04-15T06:53:42;101597.80;;;5.37;79.58
61488;BME280;47351;53.326;-6.298;2023-04-15T06:56:33;101604.00;;;5.47;79.69
61488;BME280;47351;53.326;-6.298;2023-04-15T06:59:27;101599.94;;;5.60;79.89
61488;BME280;47351;53.326;-6.298;2023-04-15T07:02:19;101602.66;;;5.72;79.85
61488;BME280;47351;53.326;-6.298;2023-04-15T07:05:15;101608.93;;;5.87;79.95
61488;BME280;47351;53.326;-6.298;2023-04-15T07:08:07;101607.17;;;6.02;79.83
61488;BME280;47351;53.326;-6.298;2023-04-15T07:11:09;101613.05;;;6.19;79.67
61488;BME280;47351;53.326;-6.298;2023-04-15T07:14:04;101618.83;;;6.43;79.36
61488;BME280;47351;53.326;-6.298;2023-04-15T07:16:59;101622.30;;;6.84;78.42
61488;BME280;47351;53.326;-6.298;2023-04-15T07:19:56;101621.22;;;7.53;77.28
61488;BME280;47351;53.326;-6.298;2023-04-15T07:22:50;101621.55;;;8.39;76.82
61488;BME280;47351;53.326;-6.298;2023-04-15T07:25:50;101623.80;;;9.38;75.61
61488;BME280;47351;53.326;-6.298;2023-04-15T07:28:44;101630.48;;;10.11;72.68
61488;BME280;47351;53.326;-6.298;2023-04-15T07:31:35;101626.04;;;10.88;70.75
61488;BME280;47351;53.326;-6.298;2023-04-15T07:34:26;101622.45;;;11.76;69.99
61488;BME280;47351;53.326;-6.298;2023-04-15T07:37:19;101626.60;;;12.69;67.80
61488;BME280;47351;53.326;-6.298;2023-04-15T07:40:10;101621.41;;;13.49;65.37
61488;BME280;47351;53.326;-6.298;2023-04-15T07:43:04;101626.93;;;14.37;63.45
61488;BME280;47351;53.326;-6.298;2023-04-15T07:45:55;101632.27;;;15.19;61.47
61488;BME280;47351;53.326;-6.298;2023-04-15T07:48:52;101639.50;;;15.96;59.74
61488;BME280;47351;53.326;-6.298;2023-04-15T07:51:42;101642.64;;;16.89;58.47
61488;BME280;47351;53.326;-6.298;2023-04-15T07:54:33;101640.02;;;17.82;56.52
61488;BME280;47351;53.326;-6.298;2023-04-15T07:57:24;101640.77;;;18.77;55.03
61488;BME280;47351;53.326;-6.298;2023-04-15T08:00:15;101641.63;;;19.62;52.06
61488;BME280;47351;53.326;-6.298;2023-04-15T08:03:06;101641.20;;;20.05;49.78
61488;BME280;47351;53.326;-6.298;2023-04-15T08:05:57;101642.02;;;20.39;49.08
61488;BME280;47351;53.326;-6.298;2023-04-15T08:08:48;101642.26;;;20.51;47.23
61488;BME280;47351;53.326;-6.298;2023-04-15T08:11:39;101645.91;;;21.21;45.88
61488;BME280;47351;53.326;-6.298;2023-04-15T08:14:30;101638.95;;;21.95;44.81
61488;BME280;47351;53.326;-6.298;2023-04-15T08:17:21;101636.50;;;22.79;43.27
61488;BME280;47351;53.326;-6.298;2023-04-15T08:20:12;101628.21;;;23.23;40.92
61488;BME280;47351;53.326;-6.298;2023-04-15T08:23:05;101625.07;;;23.51;40.12
61488;BME280;47351;53.326;-6.298;2023-04-15T08:25:56;101625.14;;;24.08;39.65
61488;BME280;47351;53.326;-6.298;2023-04-15T08:28:47;101627.27;;;24.86;38.86
61488;BME280;47351;53.326;-6.298;2023-04-15T08:31:38;101627.46;;;25.55;37.52
61488;BME280;47351;53.326;-6.298;2023-04-15T08:34:29;101628.67;;;26.24;36.64
61488;BME280;47351;53.326;-6.298;2023-04-15T08:37:20;101628.05;;;26.97;35.75
61488;BME280;47351;53.326;-6.298;2023-04-15T08:40:14;101624.09;;;27.57;34.39
61488;BME280;47351;53.326;-6.298;2023-04-15T08:43:06;101626.12;;;28.11;33.48
61488;BME280;47351;53.326;-6.298;2023-04-15T08:45:59;101632.79;;;28.63;32.45
61488;BME280;47351;53.326;-6.298;2023-04-15T08:48:50;101640.20;;;28.96;31.28
61488;BME280;47351;53.326;-6.298;2023-04-15T08:51:41;101642.71;;;29.35;30.79
61488;BME280;47351;53.326;-6.298;2023-04-15T08:54:32;101643.92;;;29.84;30.21
61488;BME280;47351;53.326;-6.298;2023-04-15T08:57:23;101644.83;;;30.24;29.48
61488;BME280;47351;53.326;-6.298;2023-04-15T09:00:15;101649.44;;;30.47;28.79
61488;BME280;47351;53.326;-6.298;2023-04-15T09:03:06;101650.51;;;30.75;28.32
61488;BME280;47351;53.326;-6.298;2023-04-15T09:05:58;101651.69;;;30.91;27.54
61488;BME280;47351;53.326;-6.298;2023-04-15T09:08:49;101650.71;;;30.82;27.24
61488;BME280;47351;53.326;-6.298;2023-04-15T09:11:41;101648.83;;;30.71;27.20
61488;BME280;47351;53.326;-6.298;2023-04-15T09:14:31;101650.58;;;30.68;26.76
61488;BME280;47351;53.326;-6.298;2023-04-15T09:17:23;101654.06;;;30.91;26.77
61488;BME280;47351;53.326;-6.298;2023-04-15T09:20:15;101657.72;;;30.45;26.84
61488;BME280;47351;53.326;-6.298;2023-04-15T09:23:11;101660.09;;;30.65;26.29
61488;BME280;47351;53.326;-6.298;2023-04-15T09:26:03;101666.16;;;29.98;26.67
61488;BME280;47351;53.326;-6.298;2023-04-15T09:28:54;101667.32;;;30.44;26.25
61488;BME280;47351;53.326;-6.298;2023-04-15T09:31:51;101669.63;;;31.20;25.48
61488;BME280;47351;53.326;-6.298;2023-04-15T09:34:42;101670.70;;;32.00;24.92
61488;BME280;47351;53.326;-6.298;2023-04-15T09:37:36;101667.77;;;32.83;24.20
61488;BME280;47351;53.326;-6.298;2023-04-15T09:40:34;101668.12;;;33.56;23.60
61488;BME280;47351;53.326;-6.298;2023-04-15T09:43:37;101670.66;;;34.22;22.72
61488;BME280;47351;53.326;-6.298;2023-04-15T09:46:43;101667.52;;;34.77;22.12
61488;BME280;47351;53.326;-6.298;2023-04-15T09:49:36;101665.20;;;35.18;21.43
61488;BME280;47351;53.326;-6.298;2023-04-15T09:52:27;101666.40;;;35.52;21.37
61488;BME280;47351;53.326;-6.298;2023-04-15T09:55:19;101665.55;;;35.97;20.92
61488;BME280;47351;53.326;-6.298;2023-04-15T09:58:17;101666.96;;;36.29;20.16
61488;BME280;47351;53.326;-6.298;2023-04-15T10:01:09;101665.80;;;36.46;19.67
61488;BME280;47351;53.326;-6.298;2023-04-15T10:04:00;101666.46;;;36.71;19.33
61488;BME280;47351;53.326;-6.298;2023-04-15T10:06:53;101662.91;;;36.73;18.89
61488;BME280;47351;53.326;-6.298;2023-04-15T10:09:44;101660.70;;;36.79;18.92
61488;BME280;47351;53.326;-6.298;2023-04-15T10:12:35;101661.40;;;37.25;19.07
61488;BME280;47351;53.326;-6.298;2023-04-15T10:15:26;101665.39;;;37.90;18.84
61488;BME280;47351;53.326;-6.298;2023-04-15T10:18:19;101665.71;;;38.21;18.49
61488;BME280;47351;53.326;-6.298;2023-04-15T10:21:14;101663.06;;;38.10;17.75
61488;BME280;47351;53.326;-6.298;2023-04-15T10:24:07;101664.02;;;38.09;17.95
61488;BME280;47351;53.326;-6.298;2023-04-15T10:26:58;101659.55;;;38.31;17.68
61488;BME280;47351;53.326;-6.298;2023-04-15T10:30:02;101658.95;;;38.42;17.40
61488;BME280;47351;53.326;-6.298;2023-04-15T10:32:53;101663.65;;;38.54;17.29
61488;BME280;47351;53.326;-6.298;2023-04-15T10:35:47;101660.63;;;38.84;17.17
61488;BME280;47351;53.326;-6.298;2023-04-15T10:42:34;101661.91;;;38.80;16.53
61488;BME280;47351;53.326;-6.298;2023-04-15T10:45:32;101663.84;;;38.41;16.80
61488;BME280;47351;53.326;-6.298;2023-04-15T10:48:39;101666.41;;;37.69;16.48
61488;BME280;47351;53.326;-6.298;2023-04-15T10:51:29;101665.70;;;37.06;17.10
61488;BME280;47351;53.326;-6.298;2023-04-15T10:55:15;101661.92;;;36.95;17.25
61488;BME280;47351;53.326;-6.298;2023-04-15T10:59:06;101660.62;;;36.53;17.07
61488;BME280;47351;53.326;-6.298;2023-04-15T11:02:44;101668.02;;;35.79;17.18
61488;BME280;47351;53.326;-6.298;2023-04-15T11:09:11;101674.98;;;34.69;17.63
61488;BME280;47351;53.326;-6.298;2023-04-15T11:12:34;101677.95;;;34.76;17.92
61488;BME280;47351;53.326;-6.298;2023-04-15T11:15:48;101671.30;;;34.74;18.19
61488;BME280;47351;53.326;-6.298;2023-04-15T11:18:53;101669.98;;;34.53;18.13
61488;BME280;47351;53.326;-6.298;2023-04-15T11:22:10;101666.73;;;34.03;18.21
61488;BME280;47351;53.326;-6.298;2023-04-15T11:25:25;101665.16;;;33.60;18.80
61488;BME280;47351;53.326;-6.298;2023-04-15T11:28:19;101664.92;;;33.30;18.91
61488;BME280;47351;53.326;-6.298;2023-04-15T11:31:18;101664.61;;;32.98;19.18
61488;BME280;47351;53.326;-6.298;2023-04-15T11:34:22;101663.50;;;32.86;19.29
61488;BME280;47351;53.326;-6.298;2023-04-15T11:37:19;101668.98;;;32.73;19.18
61488;BME280;47351;53.326;-6.298;2023-04-15T11:40:45;101671.09;;;32.39;19.39
61488;BME280;47351;53.326;-6.298;2023-04-15T11:43:57;101672.11;;;31.54;19.76
61488;BME280;47351;53.326;-6.298;2023-04-15T11:47:22;101674.69;;;30.70;20.42
61488;BME280;47351;53.326;-6.298;2023-04-15T11:50:17;101680.78;;;30.00;20.92
61488;BME280;47351;53.326;-6.298;2023-04-15T11:53:23;101683.38;;;29.58;21.73
61488;BME280;47351;53.326;-6.298;2023-04-15T11:56:21;101683.48;;;29.36;22.10
61488;BME280;47351;53.326;-6.298;2023-04-15T11:59:15;101681.23;;;29.35;22.45
61488;BME280;47351;53.326;-6.298;2023-04-15T12:02:11;101680.07;;;29.30;22.25
61488;BME280;47351;53.326;-6.298;2023-04-15T12:05:06;101684.98;;;29.06;22.41
61488;BME280;47351;53.326;-6.298;2023-04-15T12:08:03;101684.31;;;29.01;22.58
61488;BME280;47351;53.326;-6.298;2023-04-15T12:12:12;101677.24;;;28.74;22.70
61488;BME280;47351;53.326;-6.298;2023-04-15T12:15:49;101669.60;;;28.55;23.11
61488;BME280;47351;53.326;-6.298;2023-04-15T12:20:08;101672.09;;;27.40;24.09
61488;BME280;47351;53.326;-6.298;2023-04-15T12:23:38;101676.98;;;25.79;25.56
61488;BME280;47351;53.326;-6.298;2023-04-15T12:26:36;101680.46;;;24.71;26.77
61488;BME280;47351;53.326;-6.298;2023-04-15T12:29:43;101679.64;;;24.73;27.35
61488;BME280;47351;53.326;-6.298;2023-04-15T12:32:38;101684.86;;;25.12;27.17
61488;BME280;47351;53.326;-6.298;2023-04-15T12:35:31;101688.52;;;25.17;27.49
61488;BME280;47351;53.326;-6.298;2023-04-15T12:39:24;101690.64;;;24.72;28.00
61488;BME280;47351;53.326;-6.298;2023-04-15T12:42:41;101689.25;;;24.12;28.56
61488;BME280;47351;53.326;-6.298;2023-04-15T12:46:33;101686.12;;;23.95;29.57
61488;BME280;47351;53.326;-6.298;2023-04-15T12:49:20;101684.75;;;23.76;29.78
61488;BME280;47351;53.326;-6.298;2023-04-15T12:52:11;101690.55;;;23.44;29.96
61488;BME280;47351;53.326;-6.298;2023-04-15T12:55:02;101692.29;;;23.07;30.51
61488;BME280;47351;53.326;-6.298;2023-04-15T12:57:53;101697.93;;;22.61;30.87
61488;BME280;47351;53.326;-6.298;2023-04-15T13:00:43;101693.83;;;22.08;31.40
61488;BME280;47351;53.326;-6.298;2023-04-15T13:03:35;101684.83;;;21.73;32.21
61488;BME280;47351;53.326;-6.298;2023-04-15T13:06:27;101688.75;;;21.40;32.87
61488;BME280;47351;53.326;-6.298;2023-04-15T13:09:21;101693.54;;;21.10;33.29
61488;BME280;47351;53.326;-6.298;2023-04-15T13:12:11;101692.53;;;20.79;33.75
61488;BME280;47351;53.326;-6.298;2023-04-15T13:15:03;101693.02;;;20.61;34.22
61488;BME280;47351;53.326;-6.298;2023-04-15T13:18:25;101692.00;;;20.58;34.45
61488;BME280;47351;53.326;-6.298;2023-04-15T13:21:19;101692.36;;;20.57;34.51
61488;BME280;47351;53.326;-6.298;2023-04-15T13:24:36;101691.93;;;20.61;34.51
61488;BME280;47351;53.326;-6.298;2023-04-15T13:27:27;101689.25;;;20.68;34.75
61488;BME280;47351;53.326;-6.298;2023-04-15T13:30:20;101691.17;;;20.81;34.87
61488;BME280;47351;53.326;-6.298;2023-04-15T13:33:11;101693.42;;;20.98;34.70
61488;BME280;47351;53.326;-6.298;2023-04-15T13:36:02;101692.98;;;21.04;34.43
61488;BME280;47351;53.326;-6.298;2023-04-15T13:38:53;101695.31;;;21.10;34.80
61488;BME280;47351;53.326;-6.298;2023-04-15T13:41:43;101693.49;;;21.07;34.70
61488;BME280;47351;53.326;-6.298;2023-04-15T13:44:39;101692.06;;;21.03;34.80
61488;BME280;47351;53.326;-6.298;2023-04-15T13:47:30;101690.38;;;20.94;34.74
61488;BME280;47351;53.326;-6.298;2023-04-15T13:50:21;101693.50;;;20.88;34.91
61488;BME280;47351;53.326;-6.298;2023-04-15T13:53:12;101688.36;;;20.93;35.12
61488;BME280;47351;53.326;-6.298;2023-04-15T13:56:03;101686.30;;;20.97;34.69
61488;BME280;47351;53.326;-6.298;2023-04-15T13:58:54;101685.64;;;21.01;34.61
61488;BME280;47351;53.326;-6.298;2023-04-15T14:01:46;101684.66;;;21.07;34.35
61488;BME280;47351;53.326;-6.298;2023-04-15T14:04:37;101683.00;;;21.15;34.28
61488;BME280;47351;53.326;-6.298;2023-04-15T14:07:29;101681.19;;;21.22;34.48
61488;BME280;47351;53.326;-6.298;2023-04-15T14:10:26;101683.23;;;21.16;34.37
61488;BME280;47351;53.326;-6.298;2023-04-15T14:13:17;101680.59;;;21.06;34.45
61488;BME280;47351;53.326;-6.298;2023-04-15T14:16:27;101676.71;;;20.89;34.58
61488;BME280;47351;53.326;-6.298;2023-04-15T14:19:30;101678.02;;;20.65;35.08
61488;BME280;47351;53.326;-6.298;2023-04-15T14:22:21;101672.80;;;20.48;35.51
61488;BME280;47351;53.326;-6.298;2023-04-15T14:25:12;101672.63;;;20.29;35.68
61488;BME280;47351;53.326;-6.298;2023-04-15T14:28:18;101667.26;;;20.11;36.30
61488;BME280;47351;53.326;-6.298;2023-04-15T14:31:09;101671.81;;;19.89;36.40
61488;BME280;47351;53.326;-6.298;2023-04-15T14:34:00;101681.23;;;19.61;36.23
61488;BME280;47351;53.326;-6.298;2023-04-15T14:36:51;101680.20;;;19.41;36.37
61488;BME280;47351;53.326;-6.298;2023-04-15T14:39:42;101684.77;;;19.25;36.62
61488;BME280;47351;53.326;-6.298;2023-04-15T14:42:33;101688.27;;;19.06;36.74
61488;BME280;47351;53.326;-6.298;2023-04-15T14:45:26;101684.24;;;18.84;36.63
61488;BME280;47351;53.326;-6.298;2023-04-15T14:48:17;101685.32;;;18.64;36.44
61488;BME280;47351;53.326;-6.298;2023-04-15T14:51:08;101688.75;;;18.41;36.50
61488;BME280;47351;53.326;-6.298;2023-04-15T14:54:01;101692.50;;;18.19;36.45
61488;BME280;47351;53.326;-6.298;2023-04-15T14:56:52;101694.09;;;18.01;36.62
61488;BME280;47351;53.326;-6.298;2023-04-15T14:59:44;101699.85;;;17.92;36.64
61488;BME280;47351;53.326;-6.298;2023-04-15T15:02:36;101703.52;;;17.83;36.57
61488;BME280;47351;53.326;-6.298;2023-04-15T15:05:28;101703.59;;;17.78;36.70
61488;BME280;47351;53.326;-6.298;2023-04-15T15:08:19;101704.98;;;17.69;36.73
61488;BME280;47351;53.326;-6.298;2023-04-15T15:11:10;101712.27;;;17.51;36.74
61488;BME280;47351;53.326;-6.298;2023-04-15T15:14:01;101718.70;;;17.32;36.95
61488;BME280;47351;53.326;-6.298;2023-04-15T15:16:51;101724.77;;;17.15;37.31
61488;BME280;47351;53.326;-6.298;2023-04-15T15:20:03;101724.95;;;16.99;37.72
61488;BME280;47351;53.326;-6.298;2023-04-15T15:22:54;101723.09;;;16.92;38.22
61488;BME280;47351;53.326;-6.298;2023-04-15T15:25:46;101725.06;;;16.87;38.40
61488;BME280;47351;53.326;-6.298;2023-04-15T15:28:37;101721.43;;;16.81;38.49
61488;BME280;47351;53.326;-6.298;2023-04-15T15:31:56;101725.52;;;16.69;38.66
61488;BME280;47351;53.326;-6.298;2023-04-15T15:34:46;101734.39;;;16.57;38.80